Mahanoy City, Pennsylvania
Current Conditions -  °F | °C
As of 4:15 AM on Monday 22 Dec 2014 (Local Time) from KHZL Reporting Station
Overcast Overcast  
Wind Chill: 30°   Ceiling: 1200
Heat Index: 30°   Visibility: 10mi
Dew Point: 27°   Wind: 0mph
Humidity: 86%   Direction: NA
Pressure: 30.26"   Gusts: NA
Location:  40.81°N, 76.14°W
Report Text: KHZL 220915Z AUTO 00000KT 10SM OVC012 M01/M03 A3026 RMK AO2
Loading
Personal Weather Stations






























Interactive Weather Map New forecast layout! Learn more

10-Day Weather Forecast

Advertisements
Track Severe Weather on mobile